Time;durP1;ratioP1;P1;durP2;ratioP2;P2;SDS_P1;SDS_P2;PMS_P1;PMS_P2;Temp;Humidity;BMP_temperature;BMP_pressure;BME280_temperature;BME280_humidity;BME280_pressure;Samples;Min_cycle;Max_cycle;Signal;HPM_P1;HPM_P2
2021/10/19 00:00:34;;;;;;;0.70;0.60;;;8.60;99.10;;;;;;5000983;28;20450;-80
2021/10/19 00:03:00;;;;;;;0.88;0.52;;;8.60;99.10;;;;;;5001669;28;20615;-80
2021/10/19 00:05:26;;;;;;;0.95;0.95;;;8.60;99.10;;;;;;5000808;28;20290;-80
2021/10/19 00:07:52;;;;;;;6.70;1.47;;;8.60;99.10;;;;;;5000636;28;20246;-80
2021/10/19 00:10:19;;;;;;;0.40;0.40;;;8.50;99.10;;;;;;5001012;28;20202;-80
2021/10/19 00:12:44;;;;;;;4.65;1.05;;;8.50;99.10;;;;;;5000804;28;20175;-80
2021/10/19 00:15:12;;;;;;;0.80;0.70;;;8.50;99.10;;;;;;5001280;28;20674;-80
2021/10/19 00:17:39;;;;;;;0.95;0.85;;;8.50;99.10;;;;;;5001035;28;20230;-80
2021/10/19 00:20:07;;;;;;;2.47;1.20;;;8.50;99.10;;;;;;5001969;28;20175;-80
2021/10/19 00:22:33;;;;;;;0.60;0.50;;;8.40;99.10;;;;;;5001723;28;20266;-80
2021/10/19 00:25:04;;;;;;;0.70;0.60;;;8.40;99.10;;;;;;5001619;28;20175;-80
2021/10/19 00:27:31;;;;;;;0.60;0.50;;;8.40;99.10;;;;;;5001952;28;20190;-80
2021/10/19 00:29:57;;;;;;;0.55;0.47;;;8.40;99.10;;;;;;5001796;28;20543;-80
2021/10/19 00:32:23;;;;;;;2.15;1.55;;;8.40;99.10;;;;;;5000717;28;20176;-79
2021/10/19 00:34:48;;;;;;;0.87;0.60;;;8.40;99.10;;;;;;5000349;28;20222;-79
2021/10/19 00:37:14;;;;;;;0.73;0.63;;;8.40;99.10;;;;;;4999866;28;20223;-79
2021/10/19 00:39:40;;;;;;;0.60;0.50;;;8.30;99.10;;;;;;5002332;28;20457;-79
2021/10/19 00:42:06;;;;;;;0.80;0.70;;;8.30;99.10;;;;;;5001712;28;20468;-79
2021/10/19 00:44:31;;;;;;;2.53;1.23;;;8.20;99.10;;;;;;5064267;23;20767;-79
2021/10/19 00:46:58;;;;;;;2.13;1.03;;;8.20;99.10;;;;;;4984522;28;20442;-79
2021/10/19 00:49:25;;;;;;;1.15;0.95;;;8.20;99.10;;;;;;4995526;28;20174;-79
2021/10/19 00:51:52;;;;;;;0.60;0.50;;;8.20;99.10;;;;;;4996103;28;20179;-78
2021/10/19 00:54:18;;;;;;;0.40;0.40;;;8.20;99.10;;;;;;4995887;28;20233;-78
2021/10/19 00:56:44;;;;;;;0.70;0.60;;;8.20;99.10;;;;;;4995202;28;20607;-78
2021/10/19 00:59:10;;;;;;;0.60;0.50;;;8.20;99.10;;;;;;4995892;28;20182;-78
2021/10/19 01:01:36;;;;;;;2.00;0.70;;;8.20;99.10;;;;;;4995957;28;20290;-78
2021/10/19 01:04:02;;;;;;;0.90;0.60;;;8.20;99.10;;;;;;4995878;28;20509;-78
2021/10/19 01:06:28;;;;;;;0.50;0.40;;;8.20;99.10;;;;;;4995845;28;20776;-78
2021/10/19 01:08:55;;;;;;;0.63;0.50;;;8.20;99.10;;;;;;4996644;28;20415;-78
2021/10/19 01:11:20;;;;;;;1.15;0.98;;;8.20;99.10;;;;;;4997168;28;20179;-78
2021/10/19 01:13:46;;;;;;;0.40;0.40;;;8.20;99.10;;;;;;4996617;28;20274;-78
2021/10/19 01:16:12;;;;;;;1.17;1.08;;;8.20;99.10;;;;;;4996436;28;20441;-78
2021/10/19 01:18:39;;;;;;;0.40;0.40;;;8.20;99.10;;;;;;4996502;28;20210;-78
2021/10/19 01:21:06;;;;;;;0.75;0.65;;;8.10;99.10;;;;;;4997314;28;20213;-78
2021/10/19 01:23:33;;;;;;;0.77;0.68;;;8.20;99.10;;;;;;4996392;28;20175;-78
2021/10/19 01:26:03;;;;;;;0.60;0.50;;;8.20;99.10;;;;;;4995980;28;20171;-78
2021/10/19 01:28:29;;;;;;;0.50;0.40;;;8.20;99.10;;;;;;4996332;28;20171;-78
2021/10/19 01:30:58;;;;;;;0.57;0.52;;;8.20;99.10;;;;;;4996242;28;20258;-78
2021/10/19 01:33:25;;;;;;;0.65;0.55;;;8.20;99.10;;;;;;4995837;28;20655;-79
2021/10/19 01:35:51;;;;;;;1.08;0.77;;;8.20;99.10;;;;;;4995998;28;20234;-79
2021/10/19 01:38:19;;;;;;;0.45;0.38;;;8.20;99.10;;;;;;4996009;28;20590;-78
2021/10/19 01:40:46;;;;;;;0.60;0.50;;;8.20;99.10;;;;;;4995727;28;20203;-78
2021/10/19 01:43:13;;;;;;;2.38;1.65;;;8.20;99.10;;;;;;4996226;28;20202;-78
2021/10/19 01:45:40;;;;;;;0.50;0.40;;;8.30;99.10;;;;;;4995881;28;20215;-78
2021/10/19 01:48:06;;;;;;;0.50;0.40;;;8.30;99.10;;;;;;4995418;28;20199;-78
2021/10/19 01:50:33;;;;;;;0.50;0.40;;;8.30;99.10;;;;;;4995258;28;20242;-78
2021/10/19 01:52:59;;;;;;;0.70;0.60;;;8.30;99.10;;;;;;4995322;28;20171;-78
2021/10/19 01:55:25;;;;;;;1.08;0.85;;;8.30;99.10;;;;;;4995739;28;20171;-78
2021/10/19 01:57:51;;;;;;;0.70;0.60;;;8.30;99.10;;;;;;4995708;28;20550;-78
2021/10/19 02:00:17;;;;;;;0.50;0.40;;;8.30;99.10;;;;;;4996286;28;20171;-78
2021/10/19 02:02:43;;;;;;;0.50;0.40;;;8.30;99.10;;;;;;4995769;28;20178;-78
2021/10/19 02:05:11;;;;;;;0.40;0.40;;;8.30;99.10;;;;;;4996254;28;20171;-79
2021/10/19 02:07:38;;;;;;;0.68;0.60;;;8.30;99.10;;;;;;4996780;28;20195;-78
2021/10/19 02:10:06;;;;;;;2.63;0.90;;;8.40;99.10;;;;;;4995637;28;20178;-78
2021/10/19 02:12:32;;;;;;;0.60;0.50;;;8.50;99.10;;;;;;4995620;28;20631;-78
2021/10/19 02:14:58;;;;;;;0.80;0.70;;;8.50;99.10;;;;;;4995088;28;20182;-78
2021/10/19 02:17:24;;;;;;;0.40;0.40;;;8.50;99.10;;;;;;4995244;28;20611;-78
2021/10/19 02:19:49;;;;;;;0.55;0.45;;;8.50;99.10;;;;;;4995189;28;20249;-78
2021/10/19 02:22:15;;;;;;;0.50;0.40;;;8.50;99.10;;;;;;4996213;28;20679;-80
2021/10/19 02:24:41;;;;;;;1.40;0.63;;;8.60;99.10;;;;;;4998264;28;20167;-80
2021/10/19 02:27:07;;;;;;;1.23;0.60;;;8.60;99.10;;;;;;4998180;28;20431;-80
2021/10/19 02:29:33;;;;;;;0.50;0.40;;;8.70;99.10;;;;;;4998292;28;20494;-80
2021/10/19 02:31:59;;;;;;;0.40;0.40;;;8.70;99.10;;;;;;4998417;28;20190;-80
2021/10/19 02:34:25;;;;;;;0.87;0.77;;;8.70;99.10;;;;;;4997849;28;20418;-80
2021/10/19 02:36:51;;;;;;;0.67;0.57;;;8.70;99.10;;;;;;4998217;28;20516;-80
2021/10/19 02:39:16;;;;;;;0.55;0.45;;;8.70;99.10;;;;;;4998306;28;20449;-80
2021/10/19 02:41:42;;;;;;;0.50;0.40;;;8.70;99.10;;;;;;4998696;28;20203;-80
2021/10/19 02:44:08;;;;;;;0.50;0.40;;;8.70;99.10;;;;;;4997837;28;20802;-80
2021/10/19 02:46:34;;;;;;;1.90;0.60;;;8.70;99.10;;;;;;4997618;28;20441;-80
2021/10/19 02:49:02;;;;;;;1.30;0.60;;;8.70;99.10;;;;;;4997325;28;20410;-80
2021/10/19 02:51:28;;;;;;;0.90;0.85;;;8.70;99.10;;;;;;4997079;28;20186;-80
2021/10/19 02:53:54;;;;;;;0.60;0.50;;;8.70;99.10;;;;;;4997348;28;20179;-80
2021/10/19 02:56:21;;;;;;;0.70;0.60;;;8.70;99.10;;;;;;4996785;28;20295;-80
2021/10/19 02:58:47;;;;;;;1.23;0.90;;;8.70;99.10;;;;;;4996701;28;20591;-80
2021/10/19 03:01:13;;;;;;;0.50;0.40;;;8.70;99.10;;;;;;4996095;28;20203;-80
2021/10/19 03:03:39;;;;;;;0.95;0.50;;;8.80;99.10;;;;;;4996391;28;20697;-80
2021/10/19 03:06:05;;;;;;;0.60;0.50;;;8.70;99.10;;;;;;4996982;28;20206;-81
2021/10/19 03:08:31;;;;;;;0.55;0.47;;;8.70;99.10;;;;;;4998859;28;20406;-80
2021/10/19 03:10:56;;;;;;;3.00;1.13;;;8.70;99.10;;;;;;4997835;28;20186;-80
2021/10/19 03:13:22;;;;;;;0.50;0.40;;;8.70;99.10;;;;;;4997814;28;20175;-80
2021/10/19 03:15:48;;;;;;;1.37;1.27;;;8.70;99.10;;;;;;4997758;28;20419;-80
2021/10/19 03:18:14;;;;;;;0.50;0.40;;;8.80;99.10;;;;;;4997435;28;20434;-80
2021/10/19 03:20:39;;;;;;;0.93;0.90;;;8.80;99.10;;;;;;4997227;28;20461;-80
2021/10/19 03:23:05;;;;;;;0.70;0.60;;;8.80;99.10;;;;;;4997656;28;20436;-80
2021/10/19 03:25:31;;;;;;;0.50;0.40;;;8.80;99.10;;;;;;4997780;28;20175;-80
2021/10/19 03:27:56;;;;;;;0.40;0.40;;;8.80;99.10;;;;;;4997682;28;20199;-80
2021/10/19 03:30:22;;;;;;;0.57;0.50;;;8.80;99.10;;;;;;4997875;28;20195;-80
2021/10/19 03:32:48;;;;;;;0.50;0.40;;;8.80;99.10;;;;;;4998902;28;20605;-80
2021/10/19 03:35:14;;;;;;;0.60;0.50;;;8.90;99.10;;;;;;5001159;28;20518;-81
2021/10/19 03:37:40;;;;;;;0.50;0.40;;;8.80;99.10;;;;;;5001609;28;20434;-80
2021/10/19 03:40:06;;;;;;;0.60;0.50;;;8.80;99.10;;;;;;5002052;28;20493;-80
2021/10/19 03:42:32;;;;;;;0.50;0.40;;;8.80;99.10;;;;;;5002400;28;20195;-80
2021/10/19 03:44:58;;;;;;;0.60;0.50;;;8.80;99.10;;;;;;5001573;28;20686;-80
2021/10/19 03:47:24;;;;;;;2.70;1.13;;;8.80;99.10;;;;;;5001447;28;20432;-80
2021/10/19 03:49:50;;;;;;;0.30;0.30;;;8.90;99.10;;;;;;5001340;28;20206;-80
2021/10/19 03:52:16;;;;;;;1.58;0.55;;;8.80;99.10;;;;;;5000938;28;20414;-80
2021/10/19 03:54:42;;;;;;;0.80;0.70;;;8.80;99.10;;;;;;5001343;28;20218;-80
2021/10/19 03:57:07;;;;;;;2.83;0.90;;;8.80;99.10;;;;;;5000942;28;20262;-81
2021/10/19 03:59:34;;;;;;;0.40;0.40;;;8.90;99.10;;;;;;5001432;28;20919;-80
2021/10/19 04:02:00;;;;;;;0.50;0.40;;;8.90;99.10;;;;;;5001090;28;20202;-80
2021/10/19 04:04:26;;;;;;;0.70;0.60;;;8.90;99.10;;;;;;5000258;28;20714;-80
2021/10/19 04:06:52;;;;;;;0.50;0.40;;;8.90;99.10;;;;;;5000772;28;20191;-81
2021/10/19 04:09:18;;;;;;;0.50;0.40;;;8.90;99.10;;;;;;5001009;28;20428;-80
2021/10/19 04:11:44;;;;;;;1.07;1.03;;;8.90;99.10;;;;;;5000858;28;20183;-81
2021/10/19 04:14:10;;;;;;;0.70;0.60;;;8.90;99.10;;;;;;5000274;28;20771;-80
2021/10/19 04:16:35;;;;;;;0.60;0.50;;;8.90;99.10;;;;;;4999889;28;20873;-80
2021/10/19 04:19:02;;;;;;;1.07;0.97;;;8.90;99.10;;;;;;5000385;28;20213;-80
2021/10/19 04:21:27;;;;;;;0.68;0.65;;;8.90;99.10;;;;;;5000133;28;20454;-80
2021/10/19 04:23:53;;;;;;;0.50;0.40;;;8.80;99.10;;;;;;5000492;28;20178;-80
2021/10/19 04:26:19;;;;;;;0.87;0.77;;;8.90;99.10;;;;;;5000650;28;20250;-80
2021/10/19 04:28:45;;;;;;;0.50;0.40;;;8.90;99.10;;;;;;5001136;28;20291;-80
2021/10/19 04:31:12;;;;;;;0.57;0.47;;;8.90;99.10;;;;;;5001113;28;20422;-80
2021/10/19 04:33:38;;;;;;;1.75;1.25;;;8.90;99.10;;;;;;5001990;28;20281;-81
2021/10/19 04:36:05;;;;;;;0.65;0.57;;;9.00;99.10;;;;;;5000684;28;20252;-81
2021/10/19 04:38:35;;;;;;;0.93;0.82;;;9.00;99.10;;;;;;5000954;28;20230;-81
2021/10/19 04:41:02;;;;;;;2.35;0.80;;;9.00;99.10;;;;;;5000282;28;20202;-80
2021/10/19 04:43:28;;;;;;;0.50;0.40;;;9.00;99.10;;;;;;5000645;28;20171;-80
2021/10/19 04:45:54;;;;;;;0.70;0.60;;;9.10;99.10;;;;;;5000289;28;20527;-80
2021/10/19 04:48:23;;;;;;;0.68;0.57;;;9.00;99.10;;;;;;4999506;28;20167;-80
2021/10/19 04:50:50;;;;;;;2.15;0.75;;;9.10;99.10;;;;;;4999671;28;20655;-80
2021/10/19 04:53:16;;;;;;;0.60;0.50;;;9.00;99.10;;;;;;4999597;28;20179;-81
2021/10/19 04:55:42;;;;;;;0.50;0.40;;;9.00;99.10;;;;;;5000265;28;20175;-80
2021/10/19 04:58:08;;;;;;;0.50;0.40;;;9.00;99.10;;;;;;5000570;28;20257;-80
2021/10/19 05:00:34;;;;;;;0.70;0.70;;;8.90;99.10;;;;;;5000129;28;20914;-80
2021/10/19 05:02:59;;;;;;;0.70;0.60;;;8.90;99.10;;;;;;5000213;28;20410;-80
2021/10/19 05:05:26;;;;;;;0.93;0.87;;;8.90;99.10;;;;;;5000274;28;20433;-80
2021/10/19 05:07:51;;;;;;;0.45;0.43;;;8.90;99.10;;;;;;5000016;28;20672;-80
2021/10/19 05:10:18;;;;;;;0.50;0.50;;;8.90;99.10;;;;;;5000178;28;20227;-80
2021/10/19 05:12:44;;;;;;;0.60;0.50;;;8.90;99.10;;;;;;4999484;28;20544;-80
2021/10/19 05:15:10;;;;;;;0.50;0.40;;;8.90;99.10;;;;;;5000591;28;20179;-80
2021/10/19 05:17:36;;;;;;;0.50;0.40;;;8.90;99.10;;;;;;5000859;28;20263;-80
2021/10/19 05:20:04;;;;;;;0.95;0.93;;;8.90;99.10;;;;;;5001249;28;20171;-80
2021/10/19 05:22:30;;;;;;;0.65;0.55;;;8.90;99.10;;;;;;5000298;28;20291;-80
2021/10/19 05:24:56;;;;;;;0.68;0.65;;;9.00;99.10;;;;;;4999904;28;20172;-80
2021/10/19 05:27:23;;;;;;;0.70;0.55;;;8.90;99.10;;;;;;5000125;28;20191;-80
2021/10/19 05:29:49;;;;;;;0.90;0.80;;;8.90;99.10;;;;;;4999504;28;20175;-80
2021/10/19 05:32:15;;;;;;;0.80;0.70;;;8.90;99.10;;;;;;4999935;28;20202;-79
2021/10/19 05:34:41;;;;;;;0.50;0.40;;;8.90;99.10;;;;;;5000661;28;20612;-80
2021/10/19 05:37:07;;;;;;;0.60;0.50;;;9.00;99.10;;;;;;4999648;28;20222;-80
2021/10/19 05:39:33;;;;;;;0.50;0.40;;;9.00;99.10;;;;;;5000370;28;20434;-79
2021/10/19 05:41:59;;;;;;;1.60;1.50;;;9.00;99.10;;;;;;4999286;28;20458;-80
2021/10/19 05:44:26;;;;;;;0.80;0.70;;;9.00;99.10;;;;;;4999357;28;20430;-80
2021/10/19 05:46:52;;;;;;;0.55;0.47;;;9.00;99.10;;;;;;4998842;28;20195;-79
2021/10/19 05:49:18;;;;;;;0.65;0.55;;;9.00;99.10;;;;;;4999523;28;20274;-80
2021/10/19 05:51:44;;;;;;;0.80;0.80;;;9.10;99.10;;;;;;5000511;28;20284;-80
2021/10/19 05:54:13;;;;;;;1.77;0.63;;;9.10;99.10;;;;;;4999155;28;20437;-79
2021/10/19 05:56:39;;;;;;;0.55;0.47;;;9.10;99.10;;;;;;4998559;28;20203;-80
2021/10/19 05:59:05;;;;;;;0.80;0.63;;;9.20;99.10;;;;;;4999880;28;20647;-80
2021/10/19 06:01:31;;;;;;;0.50;0.40;;;9.20;99.10;;;;;;5000464;28;20224;-80
2021/10/19 06:03:57;;;;;;;0.50;0.40;;;9.20;99.10;;;;;;4999839;28;20171;-80
2021/10/19 06:06:22;;;;;;;1.03;0.87;;;9.20;99.10;;;;;;4999407;28;20457;-80
2021/10/19 06:08:51;;;;;;;0.50;0.40;;;9.20;99.10;;;;;;4999354;28;20418;-80
2021/10/19 06:11:20;;;;;;;0.93;0.80;;;9.20;99.10;;;;;;4999947;28;20185;-80
2021/10/19 06:13:46;;;;;;;0.70;0.60;;;9.20;99.10;;;;;;4999479;28;20581;-80
2021/10/19 06:16:15;;;;;;;1.02;0.95;;;9.30;99.10;;;;;;4999293;28;20199;-80
2021/10/19 06:18:40;;;;;;;9.00;1.15;;;9.20;99.10;;;;;;5000165;28;20175;-80
2021/10/19 06:21:06;;;;;;;0.50;0.40;;;9.20;99.10;;;;;;5000024;28;20250;-80
2021/10/19 06:23:32;;;;;;;0.77;0.67;;;9.20;99.10;;;;;;4999420;28;20419;-79
2021/10/19 06:25:58;;;;;;;0.47;0.40;;;9.20;99.10;;;;;;4999420;28;20414;-79
2021/10/19 06:28:23;;;;;;;0.60;0.50;;;9.30;99.10;;;;;;4998970;28;20829;-80
2021/10/19 06:30:49;;;;;;;0.80;0.70;;;9.30;99.10;;;;;;5000042;28;20875;-80
2021/10/19 06:33:15;;;;;;;0.50;0.40;;;9.40;99.10;;;;;;4999335;28;20175;-80
2021/10/19 06:35:41;;;;;;;0.93;0.93;;;9.40;99.10;;;;;;5000383;28;20171;-81
2021/10/19 06:38:07;;;;;;;0.50;0.50;;;9.50;99.10;;;;;;4999612;28;20199;-81
2021/10/19 06:40:33;;;;;;;1.50;0.77;;;9.50;99.10;;;;;;4997080;28;20175;-80
2021/10/19 06:42:59;;;;;;;0.50;0.40;;;9.50;99.10;;;;;;4998013;28;20159;-81
2021/10/19 06:45:26;;;;;;;0.95;0.93;;;9.60;99.10;;;;;;5064563;23;20525;-82
2021/10/19 06:47:52;;;;;;;0.50;0.40;;;9.60;99.10;;;;;;4992867;28;20191;-82
2021/10/19 06:50:18;;;;;;;3.50;0.70;;;9.60;99.10;;;;;;4992801;28;20197;-82
2021/10/19 06:52:44;;;;;;;0.60;0.50;;;9.60;99.10;;;;;;4992800;28;20437;-82
2021/10/19 06:55:10;;;;;;;1.00;0.90;;;9.70;99.10;;;;;;4992959;28;20229;-82
2021/10/19 06:57:41;;;;;;;1.13;1.02;;;9.70;99.10;;;;;;4993032;28;20201;-82
2021/10/19 07:00:11;;;;;;;0.43;0.43;;;9.70;99.10;;;;;;4992753;28;20517;-85
2021/10/19 07:02:37;;;;;;;0.68;0.57;;;9.70;99.10;;;;;;4994405;28;20199;-81
2021/10/19 07:05:04;;;;;;;0.50;0.40;;;9.90;99.10;;;;;;4993819;28;20171;-83
2021/10/19 07:07:30;;;;;;;0.50;0.40;;;9.90;99.10;;;;;;4993949;28;20191;-81
2021/10/19 07:09:56;;;;;;;0.53;0.47;;;10.00;99.10;;;;;;4994473;28;20186;-83
2021/10/19 07:12:21;;;;;;;0.60;0.50;;;10.00;99.10;;;;;;4993518;28;20414;-82
2021/10/19 07:14:48;;;;;;;0.70;0.60;;;10.10;99.10;;;;;;4993373;28;20179;-82
2021/10/19 07:17:17;;;;;;;0.60;0.55;;;10.10;99.10;;;;;;4992897;28;20442;-82
2021/10/19 07:19:43;;;;;;;0.50;0.40;;;10.20;99.10;;;;;;4992991;28;20178;-82
2021/10/19 07:22:09;;;;;;;0.40;0.40;;;10.20;99.10;;;;;;4993462;28;20199;-82
2021/10/19 07:24:34;;;;;;;0.70;0.60;;;10.30;99.10;;;;;;4992909;28;20464;-82
2021/10/19 07:27:15;;;;;;;1.00;0.90;;;10.30;99.10;;;;;;4992643;28;20191;-82
2021/10/19 07:29:40;;;;;;;0.55;0.45;;;10.40;99.10;;;;;;4993333;28;20478;-82
2021/10/19 07:32:06;;;;;;;1.43;1.33;;;10.30;99.10;;;;;;4993084;28;20207;-81
2021/10/19 07:34:32;;;;;;;0.93;0.83;;;10.30;99.10;;;;;;4993209;28;20545;-83
2021/10/19 07:36:58;;;;;;;0.57;0.50;;;10.40;99.10;;;;;;4992456;28;20585;-83
2021/10/19 07:39:23;;;;;;;0.60;0.50;;;10.40;99.10;;;;;;4991814;28;20175;-82
2021/10/19 07:41:49;;;;;;;0.60;0.50;;;10.40;99.10;;;;;;4991845;28;20214;-82
2021/10/19 07:44:15;;;;;;;0.60;0.50;;;10.40;99.10;;;;;;4992000;28;20446;-82
2021/10/19 07:46:41;;;;;;;0.40;0.40;;;10.40;99.10;;;;;;4992050;28;20458;-82
2021/10/19 07:49:08;;;;;;;0.73;0.63;;;10.50;99.10;;;;;;4992221;28;20541;-82
2021/10/19 07:51:34;;;;;;;1.08;0.93;;;10.60;99.10;;;;;;4992023;28;20218;-82
2021/10/19 07:54:00;;;;;;;0.70;0.70;;;10.70;99.10;;;;;;4992117;28;20226;-82
2021/10/19 07:56:25;;;;;;;0.70;0.60;;;10.80;99.10;;;;;;4991920;28;20672;-82
2021/10/19 07:58:51;;;;;;;0.60;0.50;;;10.80;99.10;;;;;;4992169;28;20418;-82
2021/10/19 08:01:18;;;;;;;0.80;0.70;;;10.80;99.10;;;;;;4992049;28;20973;-82
2021/10/19 08:03:44;;;;;;;1.15;1.05;;;10.90;99.10;;;;;;4992121;28;20194;-82
2021/10/19 08:06:10;;;;;;;0.90;0.80;;;10.90;99.10;;;;;;4992025;28;20171;-83
2021/10/19 08:08:37;;;;;;;0.60;0.50;;;11.00;99.10;;;;;;4992082;28;20422;-82
2021/10/19 08:11:05;;;;;;;0.95;0.85;;;11.10;99.10;;;;;;4991937;28;20446;-82
2021/10/19 08:13:32;;;;;;;3.65;1.80;;;11.20;99.10;;;;;;4992036;28;20226;-82
2021/10/19 08:15:58;;;;;;;0.40;0.40;;;11.30;99.10;;;;;;4991986;28;20523;-82
2021/10/19 08:18:24;;;;;;;0.40;0.40;;;11.40;98.70;;;;;;4993128;28;20186;-82
2021/10/19 08:20:49;;;;;;;0.60;0.50;;;11.40;98.50;;;;;;4995693;28;20505;-82
2021/10/19 08:23:15;;;;;;;0.40;0.40;;;11.50;98.70;;;;;;4995499;28;20171;-82
2021/10/19 08:25:42;;;;;;;0.53;0.47;;;11.50;98.40;;;;;;4995790;28;20441;-82
2021/10/19 08:28:08;;;;;;;0.50;0.45;;;11.60;98.20;;;;;;4995485;28;20457;-83
2021/10/19 08:30:34;;;;;;;0.95;0.85;;;11.70;97.60;;;;;;4995640;28;20518;-82
2021/10/19 08:33:00;;;;;;;0.80;0.70;;;11.60;97.60;;;;;;4995514;28;20699;-82
2021/10/19 08:35:26;;;;;;;0.55;0.45;;;11.70;97.70;;;;;;4995035;28;20414;-82
2021/10/19 08:37:53;;;;;;;1.15;0.70;;;11.80;97.50;;;;;;4995742;28;20603;-80
2021/10/19 08:40:20;;;;;;;1.00;0.82;;;11.80;97.70;;;;;;4998802;28;20171;-80
2021/10/19 08:42:47;;;;;;;0.60;0.60;;;11.90;97.30;;;;;;4997364;28;20569;-82
2021/10/19 08:45:16;;;;;;;0.60;0.50;;;11.90;97.20;;;;;;4996682;28;20684;-83
2021/10/19 08:47:44;;;;;;;0.70;0.60;;;12.00;97.50;;;;;;4996705;28;20222;-81
2021/10/19 08:50:12;;;;;;;1.25;0.77;;;12.10;97.40;;;;;;4996556;28;20243;-80
2021/10/19 08:52:38;;;;;;;2.30;0.85;;;12.20;97.00;;;;;;4997547;28;20584;-82
2021/10/19 08:55:06;;;;;;;0.93;0.82;;;12.20;97.50;;;;;;4996287;28;20179;-82
2021/10/19 08:57:32;;;;;;;0.57;0.50;;;12.30;97.50;;;;;;4998195;28;20206;-81
2021/10/19 08:59:58;;;;;;;1.75;0.60;;;12.20;98.80;;;;;;4996162;28;20265;-81
2021/10/19 09:02:38;;;;;;;0.60;0.50;;;12.20;98.80;;;;;;4996242;28;20574;-80
2021/10/19 09:05:06;;;;;;;0.50;0.50;;;12.10;99.10;;;;;;4996515;28;20175;-81
2021/10/19 09:07:32;;;;;;;0.60;0.50;;;12.10;99.10;;;;;;4996514;28;20187;-81
2021/10/19 09:09:58;;;;;;;1.00;0.93;;;12.00;99.10;;;;;;4996217;28;20177;-80
2021/10/19 09:12:24;;;;;;;0.80;0.60;;;12.10;99.10;;;;;;4995873;28;20422;-80
2021/10/19 09:14:50;;;;;;;2.90;0.88;;;12.10;99.10;;;;;;4995736;28;20463;-81
2021/10/19 09:17:16;;;;;;;1.57;0.60;;;12.00;99.10;;;;;;4996680;28;20293;-81
2021/10/19 09:19:44;;;;;;;4.73;0.80;;;11.90;99.10;;;;;;4997805;28;20425;-81
2021/10/19 09:22:12;;;;;;;0.80;0.70;;;11.90;99.10;;;;;;4997223;28;20473;-80
2021/10/19 09:24:41;;;;;;;1.15;0.60;;;12.00;99.10;;;;;;4996462;28;20234;-80
2021/10/19 09:27:10;;;;;;;1.38;1.02;;;12.00;99.10;;;;;;4996671;28;20675;-80
2021/10/19 09:29:45;;;;;;;0.80;0.75;;;12.00;99.10;;;;;;4995338;28;20225;-80
2021/10/19 09:32:13;;;;;;;1.85;0.90;;;12.10;99.10;;;;;;4996309;28;20704;-80
2021/10/19 09:34:41;;;;;;;0.85;0.75;;;12.10;99.10;;;;;;4995815;28;20182;-80
2021/10/19 09:37:10;;;;;;;0.50;0.50;;;12.10;99.10;;;;;;4995824;28;20281;-80
2021/10/19 09:39:41;;;;;;;1.42;0.68;;;12.20;99.10;;;;;;4996303;28;20296;-80
2021/10/19 09:42:28;;;;;;;0.73;0.70;;;12.30;99.10;;;;;;4995948;28;20258;-80
2021/10/19 09:45:00;;;;;;;0.60;0.60;;;12.40;99.10;;;;;;4995818;28;20187;-80
2021/10/19 09:47:37;;;;;;;0.55;0.43;;;12.40;99.10;;;;;;4996158;28;20191;-80
2021/10/19 09:50:08;;;;;;;0.60;0.50;;;12.50;99.10;;;;;;4996083;28;20194;-81
2021/10/19 09:52:37;;;;;;;0.82;0.60;;;12.60;99.10;;;;;;4995979;28;20175;-81
2021/10/19 09:55:10;;;;;;;0.40;0.40;;;12.70;99.10;;;;;;4996451;28;20210;-81
2021/10/19 09:57:38;;;;;;;0.70;0.60;;;12.80;99.10;;;;;;4996639;28;20210;-80
2021/10/19 10:00:07;;;;;;;1.80;0.70;;;12.90;99.10;;;;;;4996661;28;20179;-81
2021/10/19 10:02:34;;;;;;;1.02;0.60;;;13.00;99.10;;;;;;4995607;28;20199;-80
2021/10/19 10:05:01;;;;;;;0.60;0.50;;;13.10;99.10;;;;;;4996081;28;20266;-81
2021/10/19 10:07:30;;;;;;;0.60;0.50;;;13.30;99.10;;;;;;4996662;28;20192;-80
2021/10/19 10:10:02;;;;;;;1.52;0.47;;;13.30;99.10;;;;;;4995947;28;20179;-80
2021/10/19 10:12:29;;;;;;;0.50;0.40;;;13.40;99.10;;;;;;4996293;28;20373;-81
2021/10/19 10:14:55;;;;;;;0.40;0.40;;;13.50;99.10;;;;;;4996831;28;20812;-80
2021/10/19 10:17:21;;;;;;;0.40;0.40;;;13.60;99.10;;;;;;4996433;28;20227;-81
2021/10/19 10:19:47;;;;;;;0.60;0.60;;;13.60;99.10;;;;;;4996241;28;20418;-81
2021/10/19 10:22:26;;;;;;;1.03;0.93;;;13.70;99.10;;;;;;4996424;28;20462;-80
2021/10/19 10:25:07;;;;;;;1.40;1.30;;;13.70;99.10;;;;;;4996731;28;20425;-81
2021/10/19 10:27:33;;;;;;;1.20;0.80;;;13.70;99.10;;;;;;4996102;28;20186;-81
2021/10/19 10:29:59;;;;;;;0.75;0.65;;;13.60;99.10;;;;;;4996403;28;20659;-80
2021/10/19 10:32:31;;;;;;;1.30;1.20;;;13.70;99.10;;;;;;4997235;28;20182;-81
2021/10/19 10:35:07;;;;;;;0.50;0.40;;;13.80;99.10;;;;;;4996164;28;20190;-81
2021/10/19 10:37:45;;;;;;;1.48;0.77;;;13.90;99.10;;;;;;4996752;28;20191;-81
2021/10/19 10:40:24;;;;;;;0.60;0.50;;;13.90;99.10;;;;;;4996444;28;20167;-81
2021/10/19 10:42:51;;;;;;;0.70;0.60;;;14.00;99.10;;;;;;4996401;28;20199;-81
2021/10/19 10:45:33;;;;;;;0.77;0.68;;;14.00;99.10;;;;;;4995913;28;20198;-81
2021/10/19 10:48:04;;;;;;;0.40;0.40;;;14.10;99.10;;;;;;4996442;28;20187;-81
2021/10/19 10:50:35;;;;;;;1.90;0.47;;;14.10;99.10;;;;;;4996351;28;20202;-81
2021/10/19 10:53:08;;;;;;;0.65;0.63;;;14.10;99.10;;;;;;4996228;28;20168;-77
2021/10/19 10:55:37;;;;;;;0.40;0.40;;;14.20;99.10;;;;;;4995427;28;20179;-81
2021/10/19 10:58:04;;;;;;;0.60;0.55;;;14.30;99.10;;;;;;4996024;28;20187;-81
2021/10/19 11:00:30;;;;;;;0.60;0.55;;;14.30;99.10;;;;;;4996093;28;20175;-81
2021/10/19 11:03:10;;;;;;;0.57;0.50;;;14.40;99.10;;;;;;4995871;28;20234;-81
2021/10/19 11:05:51;;;;;;;2.45;1.15;;;14.40;99.10;;;;;;4995684;28;20631;-81
2021/10/19 11:08:30;;;;;;;1.00;0.82;;;14.40;99.10;;;;;;4996874;28;20164;-81
2021/10/19 11:11:17;;;;;;;0.40;0.38;;;14.40;98.80;;;;;;4996313;28;20163;-80
2021/10/19 11:13:51;;;;;;;1.25;0.50;;;14.50;99.10;;;;;;4993594;28;20302;-80
2021/10/19 11:16:48;;;;;;;1.25;0.63;;;14.50;99.10;;;;;;4994077;28;20201;-80
2021/10/19 11:19:24;;;;;;;0.30;0.30;;;14.50;99.10;;;;;;4978990;28;20703;-80
2021/10/19 11:21:54;;;;;;;0.70;0.60;;;14.40;99.10;;;;;;4994546;28;20195;-80
2021/10/19 11:24:21;;;;;;;0.95;0.85;;;14.40;99.10;;;;;;4994804;28;20266;-80
2021/10/19 11:26:48;;;;;;;1.45;1.35;;;14.40;99.10;;;;;;4995160;28;20191;-80
2021/10/19 11:29:14;;;;;;;0.75;0.68;;;14.40;99.10;;;;;;4995140;28;20698;-80
2021/10/19 11:31:40;;;;;;;0.80;0.70;;;14.40;99.10;;;;;;4995308;28;20194;-80
2021/10/19 11:34:07;;;;;;;0.60;0.55;;;14.40;99.10;;;;;;4994332;28;20229;-79
2021/10/19 11:36:34;;;;;;;0.68;0.50;;;14.40;99.10;;;;;;4993552;28;20195;-79
2021/10/19 11:39:02;;;;;;;1.88;0.98;;;14.40;99.10;;;;;;4993788;28;20666;-79
2021/10/19 11:41:30;;;;;;;0.80;0.70;;;14.40;99.10;;;;;;4994522;28;20199;-80
2021/10/19 11:44:03;;;;;;;0.40;0.40;;;14.40;99.10;;;;;;4994629;28;20176;-80
2021/10/19 11:46:32;;;;;;;5.97;1.70;;;14.30;99.10;;;;;;4993345;28;20203;-79
2021/10/19 11:49:24;;;;;;;3.30;0.70;;;14.30;99.10;;;;;;4994195;28;20179;-79
2021/10/19 11:51:51;;;;;;;1.00;0.90;;;14.30;99.10;;;;;;4989688;28;20582;-79
2021/10/19 11:54:19;;;;;;;1.60;1.15;;;14.30;99.10;;;;;;4995330;28;20175;-79
2021/10/19 11:56:58;;;;;;;2.42;1.17;;;14.30;99.10;;;;;;4997719;28;20668;-79
2021/10/19 11:59:25;;;;;;;0.73;0.70;;;14.40;99.10;;;;;;4997521;28;20175;-79
2021/10/19 12:01:55;;;;;;;0.82;0.80;;;14.50;99.10;;;;;;4997628;28;20269;-79
2021/10/19 12:04:25;;;;;;;0.63;0.52;;;14.60;99.10;;;;;;4997378;28;20194;-79
2021/10/19 12:06:52;;;;;;;0.68;0.57;;;14.70;99.10;;;;;;4997251;28;20249;-79
2021/10/19 12:09:21;;;;;;;0.70;0.60;;;14.80;99.10;;;;;;4997362;28;20636;-79
2021/10/19 12:11:59;;;;;;;1.38;1.02;;;14.80;99.10;;;;;;4997379;28;20175;-80
2021/10/19 12:14:30;;;;;;;0.93;0.82;;;14.90;99.10;;;;;;4997690;28;20264;-79
2021/10/19 12:17:01;;;;;;;1.70;0.50;;;14.90;99.00;;;;;;4997341;28;20265;-79
2021/10/19 12:19:27;;;;;;;1.17;0.60;;;15.00;98.70;;;;;;4997597;28;20611;-80
2021/10/19 12:21:56;;;;;;;1.40;0.85;;;15.00;99.00;;;;;;4997481;28;20195;-80
2021/10/19 12:24:22;;;;;;;2.25;0.60;;;15.00;98.90;;;;;;4997812;28;20180;-80
2021/10/19 12:27:01;;;;;;;2.35;2.15;;;14.90;99.10;;;;;;4998271;28;20226;-80
2021/10/19 12:29:32;;;;;;;0.82;0.77;;;15.00;99.10;;;;;;4998263;28;20178;-81
2021/10/19 12:31:58;;;;;;;0.57;0.50;;;15.00;99.10;;;;;;4997904;28;20171;-80
2021/10/19 12:34:26;;;;;;;0.80;0.70;;;15.00;99.10;;;;;;4986345;28;20728;-80
2021/10/19 12:36:52;;;;;;;1.10;0.80;;;14.90;99.10;;;;;;4989417;28;20199;-81
2021/10/19 12:39:19;;;;;;;0.40;0.40;;;15.00;99.10;;;;;;4987547;28;20210;-79
2021/10/19 12:41:46;;;;;;;0.40;0.40;;;15.00;99.10;;;;;;4986681;28;20199;-80
2021/10/19 12:44:17;;;;;;;2.47;0.68;;;15.10;99.10;;;;;;4986106;28;20171;-81
2021/10/19 12:46:44;;;;;;;0.90;0.68;;;15.20;99.10;;;;;;4988042;28;20204;-80
2021/10/19 12:49:10;;;;;;;0.95;0.68;;;15.20;99.10;;;;;;4986730;28;20175;-80
2021/10/19 12:51:37;;;;;;;0.40;0.40;;;15.30;99.10;;;;;;4987417;28;20641;-81
2021/10/19 12:54:04;;;;;;;0.90;0.70;;;15.30;99.10;;;;;;4986480;28;20168;-81